JST546 YBCS-YBCG
Flight info
| Callsign | JST546 |
|---|---|
| Flight time | N/A |
| Altitude | 37000 |
| Route | DCT CS Y177 IDRIL DCT NOPAS DCT GOMOL DCT |
| Aircraft | A21N/M-SDE2E3FGHIRWXY/LB1 |
Departure
| Time | 2026-05-08 15:51 |
|---|---|
| Airport | Cairns International Airport (YBCS) |
Arrival
| Time | N/A |
|---|---|
| Airport | Gold Coast Airport (YBCG) |
| Time | Latitude | Longitude | Altitude | Speed | Heading |
|---|---|---|---|---|---|
| 2026-05-08 15:37 | -16.87207 | 145.75530 | -17 ft | 0 kts | 158° |
| 2026-05-08 15:41 | -16.87190 | 145.75522 | 8 ft | 4 kts | 146° |
| 2026-05-08 15:42 | -16.87169 | 145.75504 | 4 ft | 4 kts | 147° |
| 2026-05-08 15:42 | -16.87149 | 145.75499 | 3 ft | 4 kts | 189° |
| 2026-05-08 15:42 | -16.87128 | 145.75510 | 3 ft | 4 kts | 232° |
| 2026-05-08 15:42 | -16.87116 | 145.75533 | 2 ft | 2 kts | 246° |
| 2026-05-08 15:43 | -16.87115 | 145.75534 | 2 ft | 0 kts | 246° |
| 2026-05-08 15:45 | -16.87117 | 145.75528 | 3 ft | 5 kts | 246° |
| 2026-05-08 15:45 | -16.87136 | 145.75483 | 4 ft | 8 kts | 246° |
| 2026-05-08 15:45 | -16.87163 | 145.75417 | 3 ft | 11 kts | 246° |
| 2026-05-08 15:46 | -16.87180 | 145.75334 | 4 ft | 13 kts | 229° |
| 2026-05-08 15:46 | -16.87234 | 145.75252 | 3 ft | 14 kts | 242° |
| 2026-05-08 15:46 | -16.87282 | 145.75152 | 5 ft | 16 kts | 244° |
| 2026-05-08 15:46 | -16.87304 | 145.75071 | 3 ft | 10 kts | 253° |
| 2026-05-08 15:47 | -16.87322 | 145.74995 | 4 ft | 12 kts | 274° |
| 2026-05-08 15:47 | -16.87295 | 145.74905 | 4 ft | 14 kts | 297° |
| 2026-05-08 15:47 | -16.87218 | 145.74841 | 3 ft | 16 kts | 331° |
| 2026-05-08 15:47 | -16.87117 | 145.74784 | 3 ft | 17 kts | 343° |
| 2026-05-08 15:48 | -16.87055 | 145.74574 | 0 ft | 14 kts | 336° |
| 2026-05-08 15:48 | -16.86958 | 145.74523 | 1 ft | 22 kts | 336° |
| 2026-05-08 15:48 | -16.86755 | 145.74429 | 2 ft | 29 kts | 336° |
| 2026-05-08 15:49 | -16.86627 | 145.74356 | 4 ft | 11 kts | 326° |
| 2026-05-08 15:49 | -16.86634 | 145.74398 | 4 ft | 13 kts | 159° |
| 2026-05-08 15:49 | -16.86689 | 145.74410 | 3 ft | 0 kts | 164° |
| 2026-05-08 15:50 | -16.86693 | 145.74411 | 3 ft | 6 kts | 164° |
| 2026-05-08 15:50 | -16.86976 | 145.74535 | 2 ft | 83 kts | 156° |
| 2026-05-08 15:50 | -16.87709 | 145.74870 | 24 ft | 147 kts | 157° |
| 2026-05-08 15:51 | -16.88390 | 145.75173 | 205 ft | 163 kts | 154° |
| 2026-05-08 15:51 | -16.89663 | 145.75926 | 1342 ft | 158 kts | 137° |
| 2026-05-08 15:51 | -16.90513 | 145.76753 | 1878 ft | 179 kts | 144° |
| 2026-05-08 15:51 | -16.91615 | 145.77520 | 2463 ft | 201 kts | 146° |
| 2026-05-08 15:52 | -16.92834 | 145.78371 | 3040 ft | 226 kts | 146° |
| 2026-05-08 15:52 | -16.94184 | 145.79321 | 3792 ft | 240 kts | 146° |
| 2026-05-08 15:52 | -16.95590 | 145.80313 | 4765 ft | 245 kts | 145° |
| 2026-05-08 15:52 | -16.96551 | 145.80993 | 5395 ft | 249 kts | 144° |
| 2026-05-08 15:53 | -16.98490 | 145.82364 | 6553 ft | 259 kts | 143° |
| 2026-05-08 15:53 | -16.99991 | 145.83427 | 7377 ft | 265 kts | 143° |
| 2026-05-08 15:53 | -17.01545 | 145.84523 | 8212 ft | 272 kts | 142° |
| 2026-05-08 15:53 | -17.02611 | 145.85277 | 8797 ft | 277 kts | 142° |
| 2026-05-08 15:54 | -17.04208 | 145.86407 | 9597 ft | 285 kts | 143° |
| 2026-05-08 15:54 | -17.05902 | 145.87604 | 10326 ft | 298 kts | 142° |
| 2026-05-08 15:54 | -17.07649 | 145.88841 | 10810 ft | 317 kts | 143° |
| 2026-05-08 15:54 | -17.09517 | 145.90162 | 11431 ft | 329 kts | 143° |
| 2026-05-08 15:55 | -17.11451 | 145.91532 | 12229 ft | 334 kts | 144° |
| 2026-05-08 15:55 | -17.15345 | 145.94288 | 13694 ft | 349 kts | 145° |
| 2026-05-08 15:55 | -17.17372 | 145.95722 | 14377 ft | 353 kts | 146° |
| 2026-05-08 15:56 | -17.19430 | 145.97178 | 14974 ft | 361 kts | 146° |
| 2026-05-08 15:56 | -17.21513 | 145.98653 | 15747 ft | 362 kts | 146° |
| 2026-05-08 15:56 | -17.23604 | 146.00136 | 16479 ft | 364 kts | 147° |
| 2026-05-08 15:56 | -17.25712 | 146.01626 | 17170 ft | 368 kts | 147° |
| 2026-05-08 15:57 | -17.27806 | 146.03111 | 17828 ft | 372 kts | 147° |
| 2026-05-08 15:57 | -17.29960 | 146.04642 | 18460 ft | 376 kts | 147° |
| 2026-05-08 15:57 | -17.32135 | 146.06187 | 18989 ft | 381 kts | 148° |
| 2026-05-08 15:57 | -17.34342 | 146.07755 | 19525 ft | 386 kts | 148° |
| 2026-05-08 15:58 | -17.36578 | 146.09346 | 20053 ft | 391 kts | 148° |
| 2026-05-08 15:58 | -17.38844 | 146.10956 | 20574 ft | 397 kts | 148° |
| 2026-05-08 15:58 | -17.41147 | 146.12593 | 21129 ft | 402 kts | 148° |
| 2026-05-08 15:58 | -17.43479 | 146.14257 | 21661 ft | 408 kts | 148° |
| 2026-05-08 15:59 | -17.45839 | 146.15942 | 22154 ft | 413 kts | 148° |
| 2026-05-08 15:59 | -17.48233 | 146.17650 | 22668 ft | 419 kts | 149° |
| 2026-05-08 15:59 | -17.50655 | 146.19372 | 23148 ft | 424 kts | 149° |
| 2026-05-08 15:59 | -17.53114 | 146.21114 | 23635 ft | 429 kts | 149° |
| 2026-05-08 16:00 | -17.55599 | 146.22880 | 24049 ft | 433 kts | 149° |
| 2026-05-08 16:00 | -17.58074 | 146.24646 | 24472 ft | 437 kts | 149° |
| 2026-05-08 16:00 | -17.60588 | 146.26444 | 24923 ft | 439 kts | 149° |
| 2026-05-08 16:00 | -17.63127 | 146.28250 | 25363 ft | 442 kts | 149° |
| 2026-05-08 16:01 | -17.65680 | 146.30066 | 25799 ft | 445 kts | 149° |
| 2026-05-08 16:01 | -17.68247 | 146.31893 | 26235 ft | 447 kts | 150° |
| 2026-05-08 16:01 | -17.70823 | 146.33731 | 26673 ft | 449 kts | 150° |
| 2026-05-08 16:01 | -17.73416 | 146.35584 | 27099 ft | 452 kts | 150° |
| 2026-05-08 16:02 | -17.76021 | 146.37442 | 27503 ft | 454 kts | 150° |
| 2026-05-08 16:02 | -17.78644 | 146.39312 | 27896 ft | 457 kts | 150° |
| 2026-05-08 16:02 | -17.81272 | 146.41188 | 28273 ft | 459 kts | 150° |
| 2026-05-08 16:02 | -17.83923 | 146.43084 | 28652 ft | 462 kts | 150° |
| 2026-05-08 16:03 | -17.86586 | 146.44989 | 29029 ft | 464 kts | 150° |
| 2026-05-08 16:03 | -17.89259 | 146.46903 | 29371 ft | 467 kts | 150° |
| 2026-05-08 16:03 | -17.91954 | 146.48832 | 29715 ft | 470 kts | 150° |
| 2026-05-08 16:03 | -17.94662 | 146.50773 | 30063 ft | 472 kts | 150° |
| 2026-05-08 16:04 | -17.97382 | 146.52722 | 30338 ft | 475 kts | 150° |
| 2026-05-08 16:04 | -18.00120 | 146.54681 | 30593 ft | 478 kts | 150° |
| 2026-05-08 16:04 | -18.02876 | 146.56657 | 30852 ft | 481 kts | 150° |
| 2026-05-08 16:04 | -18.05656 | 146.58651 | 31095 ft | 484 kts | 150° |
| 2026-05-08 16:05 | -18.08439 | 146.60647 | 31368 ft | 486 kts | 150° |
| 2026-05-08 16:05 | -18.11240 | 146.62658 | 31677 ft | 488 kts | 150° |
| 2026-05-08 16:05 | -18.14041 | 146.64672 | 31992 ft | 489 kts | 150° |
| 2026-05-08 16:05 | -18.16847 | 146.66690 | 32305 ft | 489 kts | 150° |
| 2026-05-08 16:06 | -18.19664 | 146.68714 | 32609 ft | 491 kts | 150° |
| 2026-05-08 16:06 | -18.22486 | 146.70747 | 32904 ft | 492 kts | 150° |
| 2026-05-08 16:06 | -18.25309 | 146.72782 | 33192 ft | 493 kts | 150° |
| 2026-05-08 16:06 | -18.28143 | 146.74819 | 33478 ft | 494 kts | 150° |
| 2026-05-08 16:07 | -18.30986 | 146.76860 | 33757 ft | 495 kts | 150° |
| 2026-05-08 16:07 | -18.33827 | 146.78903 | 34028 ft | 496 kts | 150° |
| 2026-05-08 16:07 | -18.36742 | 146.80828 | 34267 ft | 492 kts | 156° |
| 2026-05-08 16:07 | -18.39727 | 146.82591 | 34546 ft | 491 kts | 156° |
| 2026-05-08 16:08 | -18.42712 | 146.84330 | 34831 ft | 490 kts | 156° |
| 2026-05-08 16:08 | -18.45692 | 146.86072 | 35103 ft | 489 kts | 157° |
| 2026-05-08 16:08 | -18.48630 | 146.87788 | 35367 ft | 488 kts | 157° |
| 2026-05-08 16:08 | -18.51633 | 146.89549 | 35646 ft | 487 kts | 157° |
| 2026-05-08 16:09 | -18.54587 | 146.91288 | 35906 ft | 487 kts | 157° |
| 2026-05-08 16:09 | -18.57543 | 146.93027 | 36132 ft | 486 kts | 157° |
| 2026-05-08 16:09 | -18.60458 | 146.94739 | 36368 ft | 485 kts | 157° |
| 2026-05-08 16:09 | -18.63406 | 146.96469 | 36611 ft | 485 kts | 157° |
| 2026-05-08 16:10 | -18.66353 | 146.98204 | 36858 ft | 484 kts | 157° |
| 2026-05-08 16:10 | -18.69286 | 146.99932 | 37068 ft | 481 kts | 157° |
| 2026-05-08 16:10 | -18.75053 | 147.03327 | 37088 ft | 472 kts | 158° |
| 2026-05-08 16:11 | -18.80780 | 147.06697 | 37081 ft | 471 kts | 158° |
| 2026-05-08 16:11 | -18.86501 | 147.10075 | 37087 ft | 471 kts | 158° |
| 2026-05-08 16:12 | -18.92230 | 147.13456 | 37079 ft | 471 kts | 158° |
| 2026-05-08 16:12 | -18.97953 | 147.16836 | 37078 ft | 471 kts | 158° |
| 2026-05-08 16:13 | -19.03678 | 147.20216 | 37081 ft | 472 kts | 158° |
| 2026-05-08 16:13 | -19.05579 | 147.21344 | 37086 ft | 472 kts | 158° |
| 2026-05-08 16:14 | -19.08212 | 147.22901 | 37083 ft | 471 kts | 158° |
| 2026-05-08 16:14 | -19.13928 | 147.26288 | 37083 ft | 471 kts | 158° |
| 2026-05-08 16:15 | -19.19646 | 147.29679 | 37095 ft | 471 kts | 158° |
| 2026-05-08 16:15 | -19.25334 | 147.33050 | 37090 ft | 471 kts | 158° |
| 2026-05-08 16:16 | -19.31052 | 147.36442 | 37096 ft | 471 kts | 158° |
| 2026-05-08 16:16 | -19.36770 | 147.39839 | 37094 ft | 471 kts | 158° |
| 2026-05-08 16:17 | -19.41562 | 147.42681 | 37091 ft | 470 kts | 158° |
| 2026-05-08 16:17 | -19.43447 | 147.43800 | 37092 ft | 471 kts | 158° |